sensor_id;sensor_type;location;lat;lon;timestamp;P1;durP1;ratioP1;P2;durP2;ratioP2
68923;SDS011;55961;52.156;20.942;2022-11-04T00:01:17;31.90;;;10.30;;
68923;SDS011;55961;52.156;20.942;2022-11-04T00:03:44;24.20;;;9.70;;
68923;SDS011;55961;52.156;20.942;2022-11-04T00:06:10;18.63;;;7.90;;
68923;SDS011;55961;52.156;20.942;2022-11-04T00:08:35;18.65;;;8.35;;
68923;SDS011;55961;52.156;20.942;2022-11-04T00:11:01;25.92;;;9.43;;
68923;SDS011;55961;52.156;20.942;2022-11-04T00:13:46;23.00;;;8.17;;
68923;SDS011;55961;52.156;20.942;2022-11-04T00:16:13;24.38;;;8.13;;
68923;SDS011;55961;52.156;20.942;2022-11-04T00:18:58;30.33;;;9.45;;
68923;SDS011;55961;52.156;20.942;2022-11-04T00:21:25;21.77;;;8.95;;
68923;SDS011;55961;52.156;20.942;2022-11-04T00:24:10;26.33;;;7.75;;
68923;SDS011;55961;52.156;20.942;2022-11-04T00:26:56;18.67;;;8.10;;
68923;SDS011;55961;52.156;20.942;2022-11-04T00:29:41;25.17;;;8.70;;
68923;SDS011;55961;52.156;20.942;2022-11-04T00:32:07;30.33;;;9.90;;
68923;SDS011;55961;52.156;20.942;2022-11-04T00:34:51;21.55;;;9.57;;
68923;SDS011;55961;52.156;20.942;2022-11-04T00:37:17;23.27;;;9.45;;
68923;SDS011;55961;52.156;20.942;2022-11-04T00:39:43;28.53;;;9.23;;
68923;SDS011;55961;52.156;20.942;2022-11-04T00:42:08;23.02;;;8.80;;
68923;SDS011;55961;52.156;20.942;2022-11-04T00:44:34;24.33;;;8.70;;
68923;SDS011;55961;52.156;20.942;2022-11-04T00:47:00;22.30;;;8.83;;
68923;SDS011;55961;52.156;20.942;2022-11-04T00:49:26;20.55;;;9.02;;
68923;SDS011;55961;52.156;20.942;2022-11-04T00:51:52;21.07;;;8.50;;
68923;SDS011;55961;52.156;20.942;2022-11-04T00:54:18;20.90;;;7.72;;
68923;SDS011;55961;52.156;20.942;2022-11-04T00:56:44;22.55;;;9.30;;
68923;SDS011;55961;52.156;20.942;2022-11-04T00:59:10;20.02;;;7.43;;
68923;SDS011;55961;52.156;20.942;2022-11-04T01:01:36;21.98;;;8.48;;
68923;SDS011;55961;52.156;20.942;2022-11-04T01:04:02;26.43;;;8.77;;
68923;SDS011;55961;52.156;20.942;2022-11-04T01:06:28;19.95;;;8.02;;
68923;SDS011;55961;52.156;20.942;2022-11-04T01:08:54;17.10;;;8.03;;
68923;SDS011;55961;52.156;20.942;2022-11-04T01:11:21;21.77;;;8.07;;
68923;SDS011;55961;52.156;20.942;2022-11-04T01:13:50;22.77;;;8.88;;
68923;SDS011;55961;52.156;20.942;2022-11-04T01:16:16;22.10;;;8.57;;
68923;SDS011;55961;52.156;20.942;2022-11-04T01:18:42;22.45;;;8.00;;
68923;SDS011;55961;52.156;20.942;2022-11-04T01:21:10;24.25;;;8.73;;
68923;SDS011;55961;52.156;20.942;2022-11-04T01:23:37;19.50;;;8.63;;
68923;SDS011;55961;52.156;20.942;2022-11-04T01:26:11;17.30;;;6.30;;
68923;SDS011;55961;52.156;20.942;2022-11-04T01:28:39;22.57;;;8.70;;
68923;SDS011;55961;52.156;20.942;2022-11-04T01:31:08;20.52;;;8.68;;
68923;SDS011;55961;52.156;20.942;2022-11-04T01:33:42;22.92;;;9.68;;
68923;SDS011;55961;52.156;20.942;2022-11-04T01:36:09;21.20;;;8.77;;
68923;SDS011;55961;52.156;20.942;2022-11-04T01:38:35;20.52;;;9.05;;
68923;SDS011;55961;52.156;20.942;2022-11-04T01:41:03;19.20;;;7.50;;
68923;SDS011;55961;52.156;20.942;2022-11-04T01:43:42;17.13;;;8.52;;
68923;SDS011;55961;52.156;20.942;2022-11-04T01:46:08;23.75;;;8.77;;
68923;SDS011;55961;52.156;20.942;2022-11-04T01:48:40;21.20;;;8.68;;
68923;SDS011;55961;52.156;20.942;2022-11-04T01:51:06;21.52;;;9.38;;
68923;SDS011;55961;52.156;20.942;2022-11-04T01:53:33;20.43;;;8.63;;
68923;SDS011;55961;52.156;20.942;2022-11-04T01:56:04;22.05;;;8.30;;
68923;SDS011;55961;52.156;20.942;2022-11-04T01:58:38;21.08;;;8.77;;
68923;SDS011;55961;52.156;20.942;2022-11-04T02:01:07;16.83;;;6.97;;
68923;SDS011;55961;52.156;20.942;2022-11-04T02:03:57;16.98;;;7.82;;
68923;SDS011;55961;52.156;20.942;2022-11-04T02:06:48;20.23;;;7.80;;
68923;SDS011;55961;52.156;20.942;2022-11-04T02:09:17;17.80;;;7.22;;
68923;SDS011;55961;52.156;20.942;2022-11-04T02:11:44;20.73;;;7.70;;
68923;SDS011;55961;52.156;20.942;2022-11-04T02:14:29;16.30;;;6.25;;
68923;SDS011;55961;52.156;20.942;2022-11-04T02:25:38;20.98;;;8.98;;
68923;SDS011;55961;52.156;20.942;2022-11-04T02:31:18;21.45;;;8.35;;
68923;SDS011;55961;52.156;20.942;2022-11-04T02:33:55;23.40;;;8.93;;
68923;SDS011;55961;52.156;20.942;2022-11-04T02:39:17;19.85;;;8.30;;
68923;SDS011;55961;52.156;20.942;2022-11-04T02:42:29;21.90;;;8.88;;
68923;SDS011;55961;52.156;20.942;2022-11-04T02:45:08;19.38;;;8.00;;
68923;SDS011;55961;52.156;20.942;2022-11-04T02:47:44;18.20;;;8.27;;
68923;SDS011;55961;52.156;20.942;2022-11-04T02:50:35;13.48;;;5.30;;
68923;SDS011;55961;52.156;20.942;2022-11-04T02:55:45;19.63;;;8.20;;
68923;SDS011;55961;52.156;20.942;2022-11-04T02:58:17;17.20;;;8.25;;
68923;SDS011;55961;52.156;20.942;2022-11-04T03:00:56;17.10;;;8.90;;
68923;SDS011;55961;52.156;20.942;2022-11-04T03:03:25;20.10;;;7.35;;
68923;SDS011;55961;52.156;20.942;2022-11-04T03:05:56;18.45;;;8.25;;
68923;SDS011;55961;52.156;20.942;2022-11-04T03:08:26;20.00;;;8.73;;
68923;SDS011;55961;52.156;20.942;2022-11-04T03:11:03;20.30;;;8.68;;
68923;SDS011;55961;52.156;20.942;2022-11-04T03:13:36;21.50;;;8.13;;
68923;SDS011;55961;52.156;20.942;2022-11-04T03:16:31;18.80;;;7.38;;
68923;SDS011;55961;52.156;20.942;2022-11-04T03:19:30;20.35;;;7.68;;
68923;SDS011;55961;52.156;20.942;2022-11-04T03:22:09;18.77;;;6.50;;
68923;SDS011;55961;52.156;20.942;2022-11-04T03:24:39;19.55;;;7.05;;
68923;SDS011;55961;52.156;20.942;2022-11-04T03:30:04;16.77;;;7.28;;
68923;SDS011;55961;52.156;20.942;2022-11-04T03:35:25;15.65;;;7.10;;
68923;SDS011;55961;52.156;20.942;2022-11-04T03:37:52;24.38;;;6.47;;
68923;SDS011;55961;52.156;20.942;2022-11-04T03:40:18;20.83;;;8.50;;
68923;SDS011;55961;52.156;20.942;2022-11-04T03:42:59;14.82;;;7.38;;
68923;SDS011;55961;52.156;20.942;2022-11-04T03:45:30;20.92;;;7.57;;
68923;SDS011;55961;52.156;20.942;2022-11-04T03:47:55;17.02;;;5.88;;
68923;SDS011;55961;52.156;20.942;2022-11-04T03:50:26;19.30;;;7.07;;
68923;SDS011;55961;52.156;20.942;2022-11-04T03:52:52;14.25;;;6.88;;
68923;SDS011;55961;52.156;20.942;2022-11-04T03:55:19;15.88;;;7.05;;
68923;SDS011;55961;52.156;20.942;2022-11-04T04:00:21;17.27;;;7.25;;
68923;SDS011;55961;52.156;20.942;2022-11-04T04:11:02;21.15;;;7.30;;
68923;SDS011;55961;52.156;20.942;2022-11-04T04:21:16;18.50;;;7.30;;
68923;SDS011;55961;52.156;20.942;2022-11-04T04:23:46;19.17;;;6.75;;
68923;SDS011;55961;52.156;20.942;2022-11-04T04:26:33;15.77;;;7.33;;
68923;SDS011;55961;52.156;20.942;2022-11-04T04:29:20;21.15;;;7.80;;
68923;SDS011;55961;52.156;20.942;2022-11-04T04:31:47;16.60;;;6.93;;
68923;SDS011;55961;52.156;20.942;2022-11-04T04:34:17;12.63;;;6.68;;
68923;SDS011;55961;52.156;20.942;2022-11-04T04:36:59;19.92;;;7.32;;
68923;SDS011;55961;52.156;20.942;2022-11-04T04:39:28;24.93;;;15.20;;
68923;SDS011;55961;52.156;20.942;2022-11-04T04:42:23;15.60;;;9.20;;
68923;SDS011;55961;52.156;20.942;2022-11-04T04:45:08;18.58;;;6.55;;
68923;SDS011;55961;52.156;20.942;2022-11-04T04:47:44;14.50;;;6.55;;
68923;SDS011;55961;52.156;20.942;2022-11-04T04:50:17;18.13;;;6.75;;
68923;SDS011;55961;52.156;20.942;2022-11-04T04:52:45;16.73;;;5.50;;
68923;SDS011;55961;52.156;20.942;2022-11-04T04:55:14;13.35;;;6.25;;
68923;SDS011;55961;52.156;20.942;2022-11-04T04:57:41;19.02;;;7.63;;
68923;SDS011;55961;52.156;20.942;2022-11-04T05:00:07;13.83;;;6.33;;
68923;SDS011;55961;52.156;20.942;2022-11-04T05:02:36;18.67;;;7.13;;
68923;SDS011;55961;52.156;20.942;2022-11-04T05:05:02;16.80;;;6.53;;
68923;SDS011;55961;52.156;20.942;2022-11-04T05:07:29;18.13;;;6.32;;
68923;SDS011;55961;52.156;20.942;2022-11-04T05:09:54;10.27;;;4.43;;
68923;SDS011;55961;52.156;20.942;2022-11-04T05:12:20;13.98;;;6.32;;
68923;SDS011;55961;52.156;20.942;2022-11-04T05:14:46;14.60;;;6.65;;
68923;SDS011;55961;52.156;20.942;2022-11-04T05:17:13;13.07;;;5.77;;
68923;SDS011;55961;52.156;20.942;2022-11-04T05:19:39;16.05;;;6.25;;
68923;SDS011;55961;52.156;20.942;2022-11-04T05:22:05;17.23;;;6.50;;
68923;SDS011;55961;52.156;20.942;2022-11-04T05:24:31;17.45;;;4.72;;
68923;SDS011;55961;52.156;20.942;2022-11-04T05:26:57;11.17;;;4.67;;
68923;SDS011;55961;52.156;20.942;2022-11-04T05:29:23;14.68;;;5.88;;
68923;SDS011;55961;52.156;20.942;2022-11-04T05:31:49;14.18;;;6.47;;
68923;SDS011;55961;52.156;20.942;2022-11-04T05:34:15;16.50;;;5.80;;
68923;SDS011;55961;52.156;20.942;2022-11-04T05:36:40;17.15;;;6.35;;
68923;SDS011;55961;52.156;20.942;2022-11-04T05:39:06;14.25;;;6.00;;
68923;SDS011;55961;52.156;20.942;2022-11-04T05:41:35;15.73;;;6.30;;
68923;SDS011;55961;52.156;20.942;2022-11-04T05:44:02;16.30;;;6.38;;
68923;SDS011;55961;52.156;20.942;2022-11-04T05:46:28;15.68;;;6.45;;
68923;SDS011;55961;52.156;20.942;2022-11-04T05:48:55;17.98;;;6.95;;
68923;SDS011;55961;52.156;20.942;2022-11-04T05:51:23;16.43;;;6.77;;
68923;SDS011;55961;52.156;20.942;2022-11-04T05:53:50;17.30;;;6.63;;
68923;SDS011;55961;52.156;20.942;2022-11-04T05:56:16;16.17;;;6.10;;
68923;SDS011;55961;52.156;20.942;2022-11-04T05:58:42;15.50;;;5.72;;
68923;SDS011;55961;52.156;20.942;2022-11-04T06:01:09;13.20;;;5.50;;
68923;SDS011;55961;52.156;20.942;2022-11-04T06:03:48;17.95;;;6.82;;
68923;SDS011;55961;52.156;20.942;2022-11-04T06:06:14;16.63;;;6.50;;
68923;SDS011;55961;52.156;20.942;2022-11-04T06:08:40;15.85;;;7.07;;
68923;SDS011;55961;52.156;20.942;2022-11-04T06:11:06;13.63;;;4.50;;
68923;SDS011;55961;52.156;20.942;2022-11-04T06:13:32;15.35;;;7.22;;
68923;SDS011;55961;52.156;20.942;2022-11-04T06:15:57;15.30;;;7.05;;
68923;SDS011;55961;52.156;20.942;2022-11-04T06:18:23;15.53;;;6.00;;
68923;SDS011;55961;52.156;20.942;2022-11-04T06:20:49;14.32;;;6.60;;
68923;SDS011;55961;52.156;20.942;2022-11-04T06:23:30;13.25;;;6.28;;
68923;SDS011;55961;52.156;20.942;2022-11-04T06:25:56;14.63;;;6.83;;
68923;SDS011;55961;52.156;20.942;2022-11-04T06:28:21;16.40;;;6.95;;
68923;SDS011;55961;52.156;20.942;2022-11-04T06:30:47;14.43;;;7.68;;
68923;SDS011;55961;52.156;20.942;2022-11-04T06:33:13;14.53;;;6.47;;
68923;SDS011;55961;52.156;20.942;2022-11-04T06:35:39;13.00;;;5.75;;
68923;SDS011;55961;52.156;20.942;2022-11-04T06:38:05;9.50;;;4.13;;
68923;SDS011;55961;52.156;20.942;2022-11-04T06:40:31;12.77;;;6.43;;
68923;SDS011;55961;52.156;20.942;2022-11-04T06:42:57;14.55;;;6.18;;
68923;SDS011;55961;52.156;20.942;2022-11-04T06:45:23;10.50;;;5.22;;
68923;SDS011;55961;52.156;20.942;2022-11-04T06:47:49;14.52;;;5.95;;
68923;SDS011;55961;52.156;20.942;2022-11-04T06:50:14;12.50;;;5.80;;
68923;SDS011;55961;52.156;20.942;2022-11-04T06:52:40;12.10;;;5.63;;
68923;SDS011;55961;52.156;20.942;2022-11-04T06:55:06;11.65;;;3.90;;
68923;SDS011;55961;52.156;20.942;2022-11-04T06:57:33;14.83;;;5.80;;
68923;SDS011;55961;52.156;20.942;2022-11-04T06:59:59;15.20;;;7.25;;
68923;SDS011;55961;52.156;20.942;2022-11-04T07:02:24;8.50;;;4.32;;
68923;SDS011;55961;52.156;20.942;2022-11-04T07:04:50;14.40;;;5.70;;
68923;SDS011;55961;52.156;20.942;2022-11-04T07:07:17;14.88;;;6.03;;
68923;SDS011;55961;52.156;20.942;2022-11-04T07:09:43;12.07;;;5.75;;
68923;SDS011;55961;52.156;20.942;2022-11-04T07:12:09;12.70;;;6.18;;
68923;SDS011;55961;52.156;20.942;2022-11-04T07:14:34;14.50;;;6.17;;
68923;SDS011;55961;52.156;20.942;2022-11-04T07:17:00;17.85;;;7.20;;
68923;SDS011;55961;52.156;20.942;2022-11-04T07:19:26;15.85;;;6.95;;
68923;SDS011;55961;52.156;20.942;2022-11-04T07:21:52;15.87;;;6.40;;
68923;SDS011;55961;52.156;20.942;2022-11-04T07:24:18;16.33;;;6.75;;
68923;SDS011;55961;52.156;20.942;2022-11-04T07:26:44;13.68;;;5.05;;
68923;SDS011;55961;52.156;20.942;2022-11-04T07:29:09;15.37;;;6.53;;
68923;SDS011;55961;52.156;20.942;2022-11-04T07:31:36;16.45;;;7.00;;
68923;SDS011;55961;52.156;20.942;2022-11-04T07:34:02;18.02;;;7.57;;
68923;SDS011;55961;52.156;20.942;2022-11-04T07:36:28;12.63;;;6.40;;
68923;SDS011;55961;52.156;20.942;2022-11-04T07:38:54;21.20;;;7.23;;
68923;SDS011;55961;52.156;20.942;2022-11-04T07:41:20;18.08;;;7.05;;
68923;SDS011;55961;52.156;20.942;2022-11-04T07:43:49;16.60;;;6.72;;
68923;SDS011;55961;52.156;20.942;2022-11-04T07:46:16;18.90;;;5.93;;
68923;SDS011;55961;52.156;20.942;2022-11-04T07:48:43;16.85;;;6.90;;
68923;SDS011;55961;52.156;20.942;2022-11-04T07:51:11;19.77;;;7.28;;
68923;SDS011;55961;52.156;20.942;2022-11-04T07:53:40;16.27;;;7.35;;
68923;SDS011;55961;52.156;20.942;2022-11-04T07:56:07;11.10;;;4.65;;
68923;SDS011;55961;52.156;20.942;2022-11-04T07:58:36;14.97;;;6.37;;
68923;SDS011;55961;52.156;20.942;2022-11-04T08:01:04;17.38;;;6.88;;
68923;SDS011;55961;52.156;20.942;2022-11-04T08:03:32;15.38;;;6.55;;
68923;SDS011;55961;52.156;20.942;2022-11-04T08:05:59;17.48;;;7.00;;
68923;SDS011;55961;52.156;20.942;2022-11-04T08:08:26;13.02;;;5.93;;
68923;SDS011;55961;52.156;20.942;2022-11-04T08:10:53;14.83;;;6.70;;
68923;SDS011;55961;52.156;20.942;2022-11-04T08:13:21;10.48;;;4.90;;
68923;SDS011;55961;52.156;20.942;2022-11-04T08:15:47;15.48;;;6.22;;
68923;SDS011;55961;52.156;20.942;2022-11-04T08:18:13;15.82;;;6.00;;
68923;SDS011;55961;52.156;20.942;2022-11-04T08:20:39;12.10;;;4.67;;
68923;SDS011;55961;52.156;20.942;2022-11-04T08:23:05;13.45;;;5.65;;
68923;SDS011;55961;52.156;20.942;2022-11-04T08:25:32;12.68;;;5.35;;
68923;SDS011;55961;52.156;20.942;2022-11-04T08:27:58;14.13;;;5.63;;
68923;SDS011;55961;52.156;20.942;2022-11-04T08:30:23;15.90;;;6.07;;
68923;SDS011;55961;52.156;20.942;2022-11-04T08:32:49;16.05;;;5.82;;
68923;SDS011;55961;52.156;20.942;2022-11-04T08:35:15;15.83;;;6.43;;
68923;SDS011;55961;52.156;20.942;2022-11-04T08:37:41;15.82;;;6.45;;
68923;SDS011;55961;52.156;20.942;2022-11-04T08:40:07;12.43;;;4.75;;
68923;SDS011;55961;52.156;20.942;2022-11-04T08:42:33;16.33;;;6.70;;
68923;SDS011;55961;52.156;20.942;2022-11-04T08:44:59;19.27;;;6.07;;
68923;SDS011;55961;52.156;20.942;2022-11-04T08:47:25;12.02;;;4.93;;
68923;SDS011;55961;52.156;20.942;2022-11-04T08:49:51;15.77;;;7.10;;
68923;SDS011;55961;52.156;20.942;2022-11-04T08:52:17;17.20;;;6.93;;
68923;SDS011;55961;52.156;20.942;2022-11-04T08:54:43;15.23;;;6.70;;
68923;SDS011;55961;52.156;20.942;2022-11-04T08:57:09;14.52;;;5.88;;
68923;SDS011;55961;52.156;20.942;2022-11-04T08:59:35;14.52;;;6.80;;
68923;SDS011;55961;52.156;20.942;2022-11-04T09:02:02;15.20;;;6.57;;
68923;SDS011;55961;52.156;20.942;2022-11-04T09:04:28;13.70;;;6.77;;
68923;SDS011;55961;52.156;20.942;2022-11-04T09:06:54;14.48;;;6.93;;
68923;SDS011;55961;52.156;20.942;2022-11-04T09:09:20;14.88;;;6.57;;
68923;SDS011;55961;52.156;20.942;2022-11-04T09:11:46;14.63;;;6.80;;
68923;SDS011;55961;52.156;20.942;2022-11-04T09:14:12;15.23;;;7.10;;
68923;SDS011;55961;52.156;20.942;2022-11-04T09:16:39;16.23;;;6.63;;
68923;SDS011;55961;52.156;20.942;2022-11-04T09:19:06;13.43;;;6.45;;
68923;SDS011;55961;52.156;20.942;2022-11-04T09:21:32;31.30;;;13.17;;
68923;SDS011;55961;52.156;20.942;2022-11-04T09:23:58;19.77;;;7.13;;
68923;SDS011;55961;52.156;20.942;2022-11-04T09:26:24;19.05;;;7.32;;
68923;SDS011;55961;52.156;20.942;2022-11-04T09:28:56;15.75;;;6.93;;
68923;SDS011;55961;52.156;20.942;2022-11-04T09:31:23;16.97;;;6.43;;
68923;SDS011;55961;52.156;20.942;2022-11-04T09:33:52;18.83;;;7.60;;
68923;SDS011;55961;52.156;20.942;2022-11-04T09:36:18;12.75;;;6.10;;
68923;SDS011;55961;52.156;20.942;2022-11-04T09:38:44;15.55;;;5.90;;
68923;SDS011;55961;52.156;20.942;2022-11-04T09:41:20;12.73;;;6.03;;
68923;SDS011;55961;52.156;20.942;2022-11-04T09:43:56;18.02;;;6.63;;
68923;SDS011;55961;52.156;20.942;2022-11-04T09:46:37;16.20;;;6.60;;
68923;SDS011;55961;52.156;20.942;2022-11-04T09:49:04;13.07;;;6.65;;
68923;SDS011;55961;52.156;20.942;2022-11-04T09:51:34;12.50;;;6.07;;
68923;SDS011;55961;52.156;20.942;2022-11-04T09:54:03;16.53;;;7.37;;
68923;SDS011;55961;52.156;20.942;2022-11-04T09:56:38;15.52;;;5.35;;
68923;SDS011;55961;52.156;20.942;2022-11-04T09:59:09;18.55;;;8.27;;
68923;SDS011;55961;52.156;20.942;2022-11-04T10:26:27;18.65;;;7.00;;
68923;SDS011;55961;52.156;20.942;2022-11-04T10:29:15;14.10;;;6.72;;
68923;SDS011;55961;52.156;20.942;2022-11-04T10:31:53;15.07;;;6.32;;
68923;SDS011;55961;52.156;20.942;2022-11-04T10:34:33;15.20;;;5.80;;
68923;SDS011;55961;52.156;20.942;2022-11-04T10:37:04;14.90;;;6.32;;
68923;SDS011;55961;52.156;20.942;2022-11-04T10:39:38;12.70;;;5.50;;
68923;SDS011;55961;52.156;20.942;2022-11-04T10:42:10;14.02;;;6.10;;
68923;SDS011;55961;52.156;20.942;2022-11-04T10:44:40;18.05;;;7.50;;
68923;SDS011;55961;52.156;20.942;2022-11-04T10:52:38;12.52;;;5.18;;
68923;SDS011;55961;52.156;20.942;2022-11-04T10:58:20;13.35;;;5.82;;
68923;SDS011;55961;52.156;20.942;2022-11-04T11:00:49;12.50;;;5.50;;
68923;SDS011;55961;52.156;20.942;2022-11-04T11:05:51;18.45;;;7.30;;
68923;SDS011;55961;52.156;20.942;2022-11-04T11:08:29;12.35;;;6.10;;
68923;SDS011;55961;52.156;20.942;2022-11-04T11:10:56;11.25;;;6.13;;
68923;SDS011;55961;52.156;20.942;2022-11-04T11:13:27;11.10;;;5.57;;
68923;SDS011;55961;52.156;20.942;2022-11-04T11:19:06;12.93;;;6.13;;
68923;SDS011;55961;52.156;20.942;2022-11-04T11:21:42;14.13;;;6.25;;
68923;SDS011;55961;52.156;20.942;2022-11-04T11:24:14;13.95;;;5.93;;
68923;SDS011;55961;52.156;20.942;2022-11-04T11:26:44;19.67;;;6.07;;
68923;SDS011;55961;52.156;20.942;2022-11-04T11:29:18;12.55;;;5.65;;
68923;SDS011;55961;52.156;20.942;2022-11-04T11:31:50;15.27;;;6.85;;
68923;SDS011;55961;52.156;20.942;2022-11-04T11:34:19;12.00;;;6.25;;
68923;SDS011;55961;52.156;20.942;2022-11-04T11:36:51;19.65;;;8.45;;
68923;SDS011;55961;52.156;20.942;2022-11-04T11:39:20;12.83;;;6.47;;
68923;SDS011;55961;52.156;20.942;2022-11-04T11:44:21;15.50;;;7.25;;
68923;SDS011;55961;52.156;20.942;2022-11-04T11:47:02;14.45;;;8.15;;
68923;SDS011;55961;52.156;20.942;2022-11-04T11:49:30;17.95;;;6.50;;
68923;SDS011;55961;52.156;20.942;2022-11-04T11:54:53;14.38;;;5.80;;
68923;SDS011;55961;52.156;20.942;2022-11-04T12:00:19;14.40;;;6.80;;
68923;SDS011;55961;52.156;20.942;2022-11-04T12:11:28;20.58;;;9.25;;
68923;SDS011;55961;52.156;20.942;2022-11-04T12:14:00;70.63;;;31.40;;
68923;SDS011;55961;52.156;20.942;2022-11-04T12:16:37;62.92;;;24.80;;
68923;SDS011;55961;52.156;20.942;2022-11-04T12:22:12;42.63;;;18.98;;
68923;SDS011;55961;52.156;20.942;2022-11-04T12:24:53;22.38;;;8.55;;
68923;SDS011;55961;52.156;20.942;2022-11-04T12:30:15;14.27;;;6.75;;
68923;SDS011;55961;52.156;20.942;2022-11-04T12:32:49;13.33;;;6.83;;
68923;SDS011;55961;52.156;20.942;2022-11-04T12:35:35;14.55;;;6.22;;
68923;SDS011;55961;52.156;20.942;2022-11-04T12:40:48;12.20;;;5.72;;
68923;SDS011;55961;52.156;20.942;2022-11-04T12:46:12;12.20;;;5.57;;
68923;SDS011;55961;52.156;20.942;2022-11-04T12:48:48;14.02;;;6.60;;
68923;SDS011;55961;52.156;20.942;2022-11-04T12:54:17;13.13;;;5.75;;
68923;SDS011;55961;52.156;20.942;2022-11-04T12:57:17;12.60;;;6.05;;
68923;SDS011;55961;52.156;20.942;2022-11-04T12:59:53;13.47;;;5.70;;
68923;SDS011;55961;52.156;20.942;2022-11-04T13:02:25;15.55;;;6.03;;
68923;SDS011;55961;52.156;20.942;2022-11-04T13:10:38;12.32;;;5.82;;
68923;SDS011;55961;52.156;20.942;2022-11-04T13:13:04;12.53;;;6.07;;
68923;SDS011;55961;52.156;20.942;2022-11-04T13:15:34;12.90;;;6.13;;
68923;SDS011;55961;52.156;20.942;2022-11-04T13:18:12;12.55;;;5.47;;
68923;SDS011;55961;52.156;20.942;2022-11-04T13:20:46;12.07;;;5.72;;
68923;SDS011;55961;52.156;20.942;2022-11-04T13:23:16;10.70;;;6.05;;
68923;SDS011;55961;52.156;20.942;2022-11-04T13:26:05;12.00;;;5.73;;
68923;SDS011;55961;52.156;20.942;2022-11-04T13:28:37;10.48;;;5.43;;
68923;SDS011;55961;52.156;20.942;2022-11-04T13:33:45;13.18;;;6.57;;
68923;SDS011;55961;52.156;20.942;2022-11-04T13:36:24;13.32;;;7.03;;
68923;SDS011;55961;52.156;20.942;2022-11-04T13:42:24;13.45;;;5.68;;
68923;SDS011;55961;52.156;20.942;2022-11-04T13:44:42;10.73;;;5.75;;
68923;SDS011;55961;52.156;20.942;2022-11-04T13:47:15;12.65;;;6.35;;
68923;SDS011;55961;52.156;20.942;2022-11-04T13:49:48;11.38;;;5.95;;
68923;SDS011;55961;52.156;20.942;2022-11-04T13:52:20;14.40;;;6.00;;
68923;SDS011;55961;52.156;20.942;2022-11-04T13:54:54;12.07;;;5.20;;
68923;SDS011;55961;52.156;20.942;2022-11-04T13:57:28;14.23;;;5.72;;
68923;SDS011;55961;52.156;20.942;2022-11-04T14:16:06;12.13;;;6.40;;
68923;SDS011;55961;52.156;20.942;2022-11-04T14:18:37;13.77;;;5.80;;
68923;SDS011;55961;52.156;20.942;2022-11-04T14:23:35;25.45;;;11.55;;
68923;SDS011;55961;52.156;20.942;2022-11-04T14:26:05;115.90;;;45.40;;
68923;SDS011;55961;52.156;20.942;2022-11-04T14:28:33;81.00;;;35.55;;
68923;SDS011;55961;52.156;20.942;2022-11-04T14:31:03;142.40;;;55.23;;
68923;SDS011;55961;52.156;20.942;2022-11-04T14:33:47;76.70;;;30.75;;
68923;SDS011;55961;52.156;20.942;2022-11-04T14:38:53;24.98;;;10.88;;
68923;SDS011;55961;52.156;20.942;2022-11-04T14:41:22;28.88;;;12.38;;
68923;SDS011;55961;52.156;20.942;2022-11-04T14:44:23;24.53;;;10.73;;
68923;SDS011;55961;52.156;20.942;2022-11-04T14:47:18;28.50;;;12.85;;
68923;SDS011;55961;52.156;20.942;2022-11-04T14:49:46;26.23;;;13.60;;
68923;SDS011;55961;52.156;20.942;2022-11-04T14:52:20;26.65;;;12.38;;
68923;SDS011;55961;52.156;20.942;2022-11-04T14:55:02;32.47;;;14.05;;
68923;SDS011;55961;52.156;20.942;2022-11-04T14:57:30;23.77;;;12.80;;
68923;SDS011;55961;52.156;20.942;2022-11-04T15:00:34;23.25;;;10.27;;
68923;SDS011;55961;52.156;20.942;2022-11-04T15:05:31;23.38;;;9.93;;
68923;SDS011;55961;52.156;20.942;2022-11-04T15:08:46;25.73;;;10.68;;
68923;SDS011;55961;52.156;20.942;2022-11-04T15:10:56;24.03;;;10.93;;
68923;SDS011;55961;52.156;20.942;2022-11-04T15:13:25;17.77;;;8.73;;
68923;SDS011;55961;52.156;20.942;2022-11-04T15:15:52;17.17;;;8.25;;
68923;SDS011;55961;52.156;20.942;2022-11-04T15:18:21;19.25;;;8.18;;
68923;SDS011;55961;52.156;20.942;2022-11-04T15:20:52;17.38;;;8.77;;
68923;SDS011;55961;52.156;20.942;2022-11-04T15:23:27;18.03;;;8.13;;
68923;SDS011;55961;52.156;20.942;2022-11-04T15:26:29;23.95;;;9.30;;
68923;SDS011;55961;52.156;20.942;2022-11-04T15:28:58;19.15;;;8.27;;
68923;SDS011;55961;52.156;20.942;2022-11-04T15:31:27;15.88;;;8.40;;
68923;SDS011;55961;52.156;20.942;2022-11-04T15:33:55;18.40;;;9.75;;
68923;SDS011;55961;52.156;20.942;2022-11-04T15:36:24;21.17;;;9.47;;
68923;SDS011;55961;52.156;20.942;2022-11-04T15:38:57;18.20;;;9.35;;
68923;SDS011;55961;52.156;20.942;2022-11-04T15:41:31;34.28;;;15.32;;
68923;SDS011;55961;52.156;20.942;2022-11-04T15:44:21;29.60;;;13.52;;
68923;SDS011;55961;52.156;20.942;2022-11-04T15:46:51;24.17;;;13.27;;
68923;SDS011;55961;52.156;20.942;2022-11-04T15:49:29;22.93;;;12.27;;
68923;SDS011;55961;52.156;20.942;2022-11-04T15:52:00;23.63;;;12.73;;
68923;SDS011;55961;52.156;20.942;2022-11-04T15:54:35;22.48;;;12.10;;
68923;SDS011;55961;52.156;20.942;2022-11-04T15:57:13;18.10;;;8.55;;
68923;SDS011;55961;52.156;20.942;2022-11-04T15:59:53;19.23;;;8.98;;
68923;SDS011;55961;52.156;20.942;2022-11-04T16:02:32;20.93;;;11.27;;
68923;SDS011;55961;52.156;20.942;2022-11-04T16:05:19;21.55;;;11.13;;
68923;SDS011;55961;52.156;20.942;2022-11-04T16:07:50;21.95;;;11.35;;
68923;SDS011;55961;52.156;20.942;2022-11-04T16:10:21;18.40;;;9.88;;
68923;SDS011;55961;52.156;20.942;2022-11-04T16:12:48;20.95;;;10.20;;
68923;SDS011;55961;52.156;20.942;2022-11-04T16:15:33;20.07;;;10.03;;
68923;SDS011;55961;52.156;20.942;2022-11-04T16:17:59;20.40;;;10.25;;
68923;SDS011;55961;52.156;20.942;2022-11-04T16:20:27;15.60;;;6.80;;
68923;SDS011;55961;52.156;20.942;2022-11-04T16:22:55;17.65;;;8.38;;
68923;SDS011;55961;52.156;20.942;2022-11-04T16:25:28;20.38;;;9.90;;
68923;SDS011;55961;52.156;20.942;2022-11-04T16:27:58;25.20;;;10.73;;
68923;SDS011;55961;52.156;20.942;2022-11-04T16:30:24;25.35;;;10.32;;
68923;SDS011;55961;52.156;20.942;2022-11-04T16:32:51;27.80;;;11.13;;
68923;SDS011;55961;52.156;20.942;2022-11-04T16:35:22;22.02;;;10.75;;
68923;SDS011;55961;52.156;20.942;2022-11-04T16:37:50;24.73;;;10.07;;
68923;SDS011;55961;52.156;20.942;2022-11-04T16:40:17;25.43;;;11.07;;
68923;SDS011;55961;52.156;20.942;2022-11-04T16:42:44;26.17;;;11.35;;
68923;SDS011;55961;52.156;20.942;2022-11-04T16:45:22;25.83;;;11.30;;
68923;SDS011;55961;52.156;20.942;2022-11-04T16:47:56;20.95;;;10.05;;
68923;SDS011;55961;52.156;20.942;2022-11-04T16:50:23;27.52;;;12.13;;
68923;SDS011;55961;52.156;20.942;2022-11-04T16:52:49;25.80;;;12.33;;
68923;SDS011;55961;52.156;20.942;2022-11-04T16:55:16;33.17;;;15.30;;
68923;SDS011;55961;52.156;20.942;2022-11-04T16:57:43;25.70;;;12.32;;
68923;SDS011;55961;52.156;20.942;2022-11-04T17:00:20;20.98;;;10.63;;
68923;SDS011;55961;52.156;20.942;2022-11-04T17:02:47;26.08;;;12.43;;
68923;SDS011;55961;52.156;20.942;2022-11-04T17:05:15;24.47;;;12.47;;
68923;SDS011;55961;52.156;20.942;2022-11-04T17:07:41;26.10;;;12.52;;